Time;durP1;ratioP1;P1;durP2;ratioP2;P2;SDS_P1;SDS_P2;PMS_P1;PMS_P2;Temp;Humidity;BMP_temperature;BMP_pressure;BME280_temperature;BME280_humidity;BME280_pressure;Samples;Min_cycle;Max_cycle;Signal;HPM_P1;HPM_P2
2024/01/20 00:01:49;;;;;;;22.67;17.43;;;;;;;;;;5053853;28;20029;-55
2024/01/20 00:04:15;;;;;;;20.70;16.67;;;;;;;;;;5054158;28;20056;-52
2024/01/20 00:06:41;;;;;;;18.10;15.03;;;;;;;;;;5054781;28;20033;-54
2024/01/20 00:09:07;;;;;;;24.40;17.27;;;;;;;;;;5054359;28;20029;-52
2024/01/20 00:11:33;;;;;;;18.90;15.63;;;;;;;;;;5054108;28;20029;-56
2024/01/20 00:13:59;;;;;;;20.27;15.47;;;;;;;;;;5053914;28;20435;-54
2024/01/20 00:16:25;;;;;;;20.60;16.67;;;;;;;;;;5053869;28;20032;-55
2024/01/20 00:18:51;;;;;;;22.67;16.63;;;;;;;;;;5054372;28;20112;-54
2024/01/20 00:21:17;;;;;;;21.17;17.27;;;;;;;;;;5053654;28;20114;-52
2024/01/20 00:23:42;;;;;;;24.03;19.07;;;;;;;;;;5053575;28;20025;-54
2024/01/20 00:26:08;;;;;;;20.83;16.63;;;;;;;;;;5054181;28;20017;-57
2024/01/20 00:28:34;;;;;;;24.03;16.37;;;;;;;;;;5053534;28;20025;-56
2024/01/20 00:31:00;;;;;;;20.10;17.97;;;;;;;;;;5054291;28;20029;-54
2024/01/20 00:33:26;;;;;;;19.67;17.17;;;;;;;;;;5053998;28;20410;-54
2024/01/20 00:35:52;;;;;;;23.93;16.30;;;;;;;;;;5053697;28;20033;-57
2024/01/20 00:38:18;;;;;;;20.90;17.63;;;;;;;;;;5054111;28;20029;-52
2024/01/20 00:40:44;;;;;;;20.43;16.23;;;;;;;;;;5053635;28;20037;-53
2024/01/20 00:43:10;;;;;;;21.87;16.60;;;;;;;;;;5053482;28;20425;-54
2024/01/20 00:45:36;;;;;;;21.07;15.80;;;;;;;;;;5053720;28;20037;-53
2024/01/20 00:48:04;;;;;;;23.53;15.50;;;;;;;;;;5053765;28;20036;-55
2024/01/20 00:50:30;;;;;;;22.33;17.13;;;;;;;;;;5053917;28;20040;-54
2024/01/20 00:52:56;;;;;;;26.37;20.20;;;;;;;;;;5053947;28;20167;-52
2024/01/20 00:55:22;;;;;;;23.83;19.17;;;;;;;;;;5053517;28;20576;-54
2024/01/20 00:57:48;;;;;;;23.33;17.80;;;;;;;;;;5053632;28;20097;-56
2024/01/20 01:00:14;;;;;;;23.27;19.60;;;;;;;;;;5053669;28;20029;-56
2024/01/20 01:02:41;;;;;;;22.80;17.47;;;;;;;;;;5053544;28;20025;-54
2024/01/20 01:05:07;;;;;;;25.37;20.03;;;;;;;;;;5053451;28;20028;-54
2024/01/20 01:07:33;;;;;;;25.03;19.23;;;;;;;;;;5053547;28;20048;-54
2024/01/20 01:10:00;;;;;;;27.80;19.43;;;;;;;;;;5053755;28;20155;-57
2024/01/20 01:12:27;;;;;;;29.70;20.87;;;;;;;;;;5053167;28;20044;-55
2024/01/20 01:14:52;;;;;;;25.73;20.20;;;;;;;;;;5053421;28;20083;-53
2024/01/20 01:17:18;;;;;;;26.87;19.43;;;;;;;;;;5053471;28;20406;-54
2024/01/20 01:19:45;;;;;;;25.33;20.57;;;;;;;;;;5053004;28;20033;-56
2024/01/20 01:22:11;;;;;;;26.07;20.37;;;;;;;;;;5053404;28;20024;-52
2024/01/20 01:24:39;;;;;;;26.90;19.63;;;;;;;;;;5053386;28;20021;-54
2024/01/20 01:27:08;;;;;;;24.97;19.93;;;;;;;;;;5053364;28;20036;-51
2024/01/20 01:29:34;;;;;;;26.23;19.97;;;;;;;;;;5053589;28;20033;-50
2024/01/20 01:32:00;;;;;;;31.73;21.73;;;;;;;;;;5054083;28;20025;-54
2024/01/20 01:34:26;;;;;;;26.67;20.03;;;;;;;;;;5057097;28;20029;-55
2024/01/20 01:36:52;;;;;;;31.80;21.27;;;;;;;;;;5057151;28;20036;-54
2024/01/20 01:39:20;;;;;;;26.37;20.83;;;;;;;;;;5057361;28;20033;-56
2024/01/20 01:41:46;;;;;;;25.70;20.13;;;;;;;;;;5056972;28;20071;-51
2024/01/20 01:44:12;;;;;;;28.57;19.93;;;;;;;;;;5057766;28;20400;-54
2024/01/20 01:46:38;;;;;;;25.83;20.87;;;;;;;;;;5056954;28;20452;-55
2024/01/20 01:49:04;;;;;;;22.73;17.80;;;;;;;;;;5057454;28;20051;-50
2024/01/20 01:51:31;;;;;;;25.10;19.00;;;;;;;;;;5056856;28;20094;-55
2024/01/20 01:53:58;;;;;;;30.73;20.23;;;;;;;;;;5057317;28;20059;-53
2024/01/20 01:56:24;;;;;;;21.87;18.03;;;;;;;;;;5056749;28;20072;-55
2024/01/20 01:58:50;;;;;;;24.17;20.70;;;;;;;;;;5056687;28;20021;-52
2024/01/20 02:01:16;;;;;;;28.03;17.80;;;;;;;;;;5056622;28;20025;-52
2024/01/20 02:03:42;;;;;;;25.47;20.00;;;;;;;;;;5057215;28;20029;-56
2024/01/20 02:06:08;;;;;;;24.57;18.57;;;;;;;;;;5056546;28;20162;-52
2024/01/20 02:08:38;;;;;;;26.07;19.03;;;;;;;;;;5056948;28;20028;-55
2024/01/20 02:11:04;;;;;;;32.38;19.67;;;;;;;;;;5056930;28;20348;-53
2024/01/20 02:13:31;;;;;;;26.97;19.13;;;;;;;;;;5056378;28;20025;-52
2024/01/20 02:15:57;;;;;;;22.30;18.33;;;;;;;;;;5056370;28;20039;-56
2024/01/20 02:18:23;;;;;;;26.00;18.30;;;;;;;;;;5057004;28;20021;-54
2024/01/20 02:20:49;;;;;;;24.50;19.70;;;;;;;;;;5055921;28;20060;-51
2024/01/20 02:23:15;;;;;;;27.77;20.77;;;;;;;;;;5056314;28;20025;-53
2024/01/20 02:25:41;;;;;;;23.50;17.17;;;;;;;;;;5056694;28;20021;-55
2024/01/20 02:28:07;;;;;;;23.47;19.10;;;;;;;;;;5057008;28;20055;-51
2024/01/20 02:30:33;;;;;;;23.10;18.30;;;;;;;;;;5056912;28;20047;-54
2024/01/20 02:32:59;;;;;;;26.03;19.33;;;;;;;;;;5056029;28;20021;-50
2024/01/20 02:35:25;;;;;;;27.50;19.57;;;;;;;;;;5056003;28;20067;-53
2024/01/20 02:37:50;;;;;;;27.37;18.83;;;;;;;;;;5056336;28;20025;-53
2024/01/20 02:40:17;;;;;;;34.80;21.90;;;;;;;;;;5055596;28;20060;-53
2024/01/20 02:42:43;;;;;;;25.30;21.87;;;;;;;;;;5055648;28;20088;-55
2024/01/20 02:45:09;;;;;;;27.30;20.70;;;;;;;;;;5055806;28;20068;-53
2024/01/20 02:47:35;;;;;;;21.57;18.90;;;;;;;;;;5056356;28;20037;-53
2024/01/20 02:50:01;;;;;;;31.50;21.00;;;;;;;;;;5056313;28;20463;-55
2024/01/20 02:52:27;;;;;;;32.07;22.33;;;;;;;;;;5055701;28;20025;-51
2024/01/20 02:54:53;;;;;;;25.47;19.13;;;;;;;;;;5055499;28;20465;-53
2024/01/20 02:57:19;;;;;;;28.70;22.97;;;;;;;;;;5055306;28;20367;-54
2024/01/20 02:59:45;;;;;;;24.27;20.47;;;;;;;;;;5056011;28;20371;-53
2024/01/20 03:02:11;;;;;;;35.67;23.20;;;;;;;;;;5055566;28;20021;-56
2024/01/20 03:04:37;;;;;;;28.57;20.57;;;;;;;;;;5055753;28;20025;-53
2024/01/20 03:07:04;;;;;;;29.03;22.73;;;;;;;;;;5055413;28;20025;-52
2024/01/20 03:09:30;;;;;;;32.77;22.37;;;;;;;;;;5055839;28;20035;-54
2024/01/20 03:11:56;;;;;;;26.93;21.60;;;;;;;;;;5055637;28;20033;-56
2024/01/20 03:14:21;;;;;;;32.90;25.00;;;;;;;;;;5054951;28;20048;-51
2024/01/20 03:16:47;;;;;;;27.07;19.90;;;;;;;;;;5055246;28;20025;-52
2024/01/20 03:19:13;;;;;;;30.30;21.30;;;;;;;;;;5055746;28;20041;-54
2024/01/20 03:21:40;;;;;;;33.93;22.60;;;;;;;;;;5055176;28;20036;-53
2024/01/20 03:24:06;;;;;;;28.93;24.10;;;;;;;;;;5055043;28;20053;-52
2024/01/20 03:26:31;;;;;;;28.73;21.30;;;;;;;;;;5055050;28;20033;-55
2024/01/20 03:28:57;;;;;;;30.83;22.03;;;;;;;;;;5054824;28;20025;-52
2024/01/20 03:31:24;;;;;;;26.57;20.90;;;;;;;;;;5054678;28;20025;-56
2024/01/20 03:33:50;;;;;;;26.43;21.03;;;;;;;;;;5055170;28;20100;-54
2024/01/20 03:36:16;;;;;;;26.70;21.07;;;;;;;;;;5054878;28;20371;-56
2024/01/20 03:38:42;;;;;;;30.33;20.50;;;;;;;;;;5055197;28;20025;-55
2024/01/20 03:41:08;;;;;;;36.27;24.17;;;;;;;;;;5054709;28;20378;-51
2024/01/20 03:43:33;;;;;;;32.47;21.87;;;;;;;;;;5054781;28;20398;-55
2024/01/20 03:45:59;;;;;;;26.07;20.80;;;;;;;;;;5054661;28;20029;-54
2024/01/20 03:48:25;;;;;;;32.53;22.47;;;;;;;;;;5055434;28;20512;-51
2024/01/20 03:50:51;;;;;;;31.33;24.40;;;;;;;;;;5054582;28;20043;-53
2024/01/20 03:53:17;;;;;;;26.83;22.33;;;;;;;;;;5054904;28;20021;-56
2024/01/20 03:55:43;;;;;;;28.17;22.80;;;;;;;;;;5053943;28;20107;-54
2024/01/20 03:58:09;;;;;;;29.87;22.33;;;;;;;;;;5054529;28;20524;-56
2024/01/20 04:00:35;;;;;;;26.40;22.07;;;;;;;;;;5054354;28;20072;-54
2024/01/20 04:03:02;;;;;;;33.43;22.50;;;;;;;;;;5054691;28;20210;-51
2024/01/20 04:05:28;;;;;;;31.60;23.37;;;;;;;;;;5054324;28;20071;-53
2024/01/20 04:07:54;;;;;;;25.77;22.47;;;;;;;;;;5055129;28;20021;-53
2024/01/20 04:10:20;;;;;;;28.13;23.63;;;;;;;;;;5053423;28;20021;-54
2024/01/20 04:12:46;;;;;;;27.83;22.00;;;;;;;;;;5054212;28;20036;-55
2024/01/20 04:15:12;;;;;;;28.63;22.00;;;;;;;;;;5054472;28;20024;-54
2024/01/20 04:17:38;;;;;;;25.70;21.67;;;;;;;;;;5054482;28;20028;-56
2024/01/20 04:20:04;;;;;;;25.00;21.67;;;;;;;;;;5054243;28;20083;-56
2024/01/20 04:22:30;;;;;;;24.77;21.87;;;;;;;;;;5054032;28;20051;-53
2024/01/20 04:24:56;;;;;;;30.30;22.87;;;;;;;;;;5053980;28;20025;-54
2024/01/20 04:27:22;;;;;;;35.17;22.53;;;;;;;;;;5054042;28;20367;-54
2024/01/20 04:29:48;;;;;;;26.60;20.37;;;;;;;;;;5054504;28;20036;-54
2024/01/20 04:32:14;;;;;;;25.13;19.57;;;;;;;;;;5054189;28;20029;-55
2024/01/20 04:34:40;;;;;;;27.57;21.80;;;;;;;;;;5053872;28;20083;-53
2024/01/20 04:37:07;;;;;;;28.40;21.80;;;;;;;;;;5053834;28;20025;-54
2024/01/20 04:39:33;;;;;;;30.27;22.33;;;;;;;;;;5054330;28;20060;-52
2024/01/20 04:41:59;;;;;;;25.20;20.10;;;;;;;;;;5053839;28;20398;-56
2024/01/20 04:44:25;;;;;;;34.10;23.87;;;;;;;;;;5054101;28;20470;-56
2024/01/20 04:46:51;;;;;;;34.10;23.13;;;;;;;;;;5053990;28;20032;-52
2024/01/20 04:49:16;;;;;;;30.73;22.80;;;;;;;;;;5053754;28;20029;-52
2024/01/20 04:51:42;;;;;;;30.30;22.47;;;;;;;;;;5053608;28;20029;-51
2024/01/20 04:54:09;;;;;;;25.97;20.73;;;;;;;;;;5053733;28;20025;-55
2024/01/20 04:56:35;;;;;;;34.63;22.77;;;;;;;;;;5054161;28;20447;-52
2024/01/20 04:59:01;;;;;;;28.70;22.03;;;;;;;;;;5054055;28;20025;-55
2024/01/20 05:01:26;;;;;;;38.77;24.50;;;;;;;;;;5054032;28;20025;-53
2024/01/20 05:03:53;;;;;;;26.77;22.07;;;;;;;;;;5053901;28;20036;-56
2024/01/20 05:06:19;;;;;;;29.83;23.10;;;;;;;;;;5053568;28;20463;-56
2024/01/20 05:08:45;;;;;;;28.33;22.00;;;;;;;;;;5057646;28;20071;-51
2024/01/20 05:11:11;;;;;;;26.57;20.97;;;;;;;;;;5057546;28;20029;-56
2024/01/20 05:13:36;;;;;;;32.97;20.83;;;;;;;;;;5057585;28;20031;-54
2024/01/20 05:16:02;;;;;;;31.87;21.87;;;;;;;;;;5058046;28;20366;-56
2024/01/20 05:18:28;;;;;;;36.60;26.43;;;;;;;;;;5058322;28;20447;-55
2024/01/20 05:20:54;;;;;;;25.93;21.57;;;;;;;;;;5057645;28;20064;-55
2024/01/20 05:23:20;;;;;;;28.90;21.13;;;;;;;;;;5057944;28;20064;-54
2024/01/20 05:25:46;;;;;;;29.37;23.33;;;;;;;;;;5057278;28;20381;-54
2024/01/20 05:28:12;;;;;;;28.17;22.33;;;;;;;;;;5057030;28;20021;-53
2024/01/20 05:30:38;;;;;;;26.17;20.47;;;;;;;;;;5057170;28;20036;-54
2024/01/20 05:33:04;;;;;;;32.67;25.27;;;;;;;;;;5057123;28;20051;-55
2024/01/20 05:35:33;;;;;;;27.93;22.37;;;;;;;;;;5057127;28;20071;-56
2024/01/20 05:37:59;;;;;;;24.90;22.23;;;;;;;;;;5057167;28;20021;-55
2024/01/20 05:40:25;;;;;;;28.47;22.73;;;;;;;;;;5056773;28;20047;-55
2024/01/20 05:42:51;;;;;;;28.37;22.60;;;;;;;;;;5057007;28;20033;-56
2024/01/20 05:45:16;;;;;;;29.50;20.93;;;;;;;;;;5057269;28;20051;-56
2024/01/20 05:47:42;;;;;;;26.90;21.20;;;;;;;;;;5057308;28;20108;-54
2024/01/20 05:50:08;;;;;;;23.70;20.17;;;;;;;;;;5056906;28;20071;-56
2024/01/20 05:52:34;;;;;;;44.77;23.83;;;;;;;;;;5056856;28;20069;-54
2024/01/20 05:55:00;;;;;;;34.50;21.80;;;;;;;;;;5056587;28;20504;-54
2024/01/20 05:57:26;;;;;;;23.53;19.57;;;;;;;;;;5056202;28;20025;-55
2024/01/20 05:59:52;;;;;;;26.53;19.93;;;;;;;;;;5056947;28;20044;-56
2024/01/20 06:02:18;;;;;;;24.03;19.73;;;;;;;;;;5056926;28;20359;-53
2024/01/20 06:04:44;;;;;;;23.90;19.13;;;;;;;;;;5056612;28;20017;-54
2024/01/20 06:07:10;;;;;;;28.33;22.73;;;;;;;;;;5056379;28;20097;-56
2024/01/20 06:09:36;;;;;;;34.53;23.07;;;;;;;;;;5056562;28;20032;-51
2024/01/20 06:12:02;;;;;;;35.17;23.07;;;;;;;;;;5056813;28;20021;-56
2024/01/20 06:14:28;;;;;;;26.03;21.00;;;;;;;;;;5056555;28;20021;-55
2024/01/20 06:16:54;;;;;;;26.60;20.63;;;;;;;;;;5056725;28;20451;-55
2024/01/20 06:19:20;;;;;;;26.83;20.00;;;;;;;;;;5056190;28;20411;-51
2024/01/20 06:21:46;;;;;;;32.87;22.23;;;;;;;;;;5056046;28;20025;-54
2024/01/20 06:24:12;;;;;;;25.30;20.23;;;;;;;;;;5056838;28;20028;-52
2024/01/20 06:26:38;;;;;;;31.73;23.23;;;;;;;;;;5056784;28;20094;-55
2024/01/20 06:29:04;;;;;;;32.10;22.80;;;;;;;;;;5056208;28;20459;-54
2024/01/20 06:31:30;;;;;;;34.70;23.23;;;;;;;;;;5056104;28;20032;-53
2024/01/20 06:33:56;;;;;;;31.13;23.40;;;;;;;;;;5056635;28;20028;-52
2024/01/20 06:36:25;;;;;;;31.17;21.00;;;;;;;;;;5056037;28;20039;-50
2024/01/20 06:38:50;;;;;;;25.43;20.90;;;;;;;;;;5055786;28;20529;-54
2024/01/20 06:41:16;;;;;;;29.47;22.33;;;;;;;;;;5056204;28;20041;-51
2024/01/20 06:43:42;;;;;;;25.97;20.27;;;;;;;;;;5055711;28;20079;-54
2024/01/20 06:46:08;;;;;;;24.53;19.23;;;;;;;;;;5056220;28;20021;-56
2024/01/20 06:48:35;;;;;;;28.07;22.10;;;;;;;;;;5055617;28;20028;-52
2024/01/20 06:51:01;;;;;;;29.17;21.77;;;;;;;;;;5056297;28;20083;-54
2024/01/20 06:53:27;;;;;;;26.10;19.33;;;;;;;;;;5056012;28;20025;-52
2024/01/20 06:55:53;;;;;;;32.73;23.53;;;;;;;;;;5056695;28;20052;-55
2024/01/20 06:58:20;;;;;;;27.03;21.30;;;;;;;;;;5056340;28;20025;-55
2024/01/20 07:00:45;;;;;;;23.30;20.20;;;;;;;;;;5055711;28;20056;-52
2024/01/20 07:03:11;;;;;;;29.23;21.30;;;;;;;;;;5055525;28;20501;-55
2024/01/20 07:05:37;;;;;;;30.20;21.63;;;;;;;;;;5055339;28;20025;-52
2024/01/20 07:08:04;;;;;;;23.57;17.63;;;;;;;;;;5055306;28;20451;-56
2024/01/20 07:10:30;;;;;;;24.73;19.87;;;;;;;;;;5055325;28;20417;-56
2024/01/20 07:12:56;;;;;;;28.63;20.87;;;;;;;;;;5055386;28;20025;-51
2024/01/20 07:15:22;;;;;;;28.13;22.73;;;;;;;;;;5055387;28;20021;-57
2024/01/20 07:17:48;;;;;;;29.47;21.73;;;;;;;;;;5055872;28;20060;-56
2024/01/20 07:20:14;;;;;;;24.53;20.63;;;;;;;;;;5055206;28;20064;-54
2024/01/20 07:22:41;;;;;;;25.80;20.53;;;;;;;;;;5055212;28;20025;-51
2024/01/20 07:25:07;;;;;;;27.33;20.63;;;;;;;;;;5055274;28;20443;-53
2024/01/20 07:27:33;;;;;;;23.73;18.87;;;;;;;;;;5055201;28;20073;-53
2024/01/20 07:30:00;;;;;;;27.73;21.73;;;;;;;;;;5054155;28;20033;-54
2024/01/20 07:32:26;;;;;;;29.17;20.13;;;;;;;;;;5055276;28;20440;-51
2024/01/20 07:34:51;;;;;;;26.67;19.43;;;;;;;;;;5054927;28;20036;-51
2024/01/20 07:37:17;;;;;;;22.60;19.50;;;;;;;;;;5054871;28;20032;-52
2024/01/20 07:39:43;;;;;;;30.77;21.97;;;;;;;;;;5054775;28;20029;-52
2024/01/20 07:42:10;;;;;;;30.00;22.03;;;;;;;;;;5054590;28;20036;-52
2024/01/20 07:44:36;;;;;;;27.70;21.00;;;;;;;;;;5054721;28;20017;-55
2024/01/20 07:47:02;;;;;;;30.13;21.07;;;;;;;;;;5054746;28;20032;-51
2024/01/20 07:49:28;;;;;;;28.73;20.27;;;;;;;;;;5055492;28;20037;-54
2024/01/20 07:51:54;;;;;;;27.17;20.63;;;;;;;;;;5054664;28;20146;-53
2024/01/20 07:54:20;;;;;;;31.47;21.37;;;;;;;;;;5054567;28;20048;-53
2024/01/20 07:56:46;;;;;;;28.97;22.23;;;;;;;;;;5054903;28;20028;-56
2024/01/20 07:59:12;;;;;;;26.23;22.40;;;;;;;;;;5054824;28;20025;-50
2024/01/20 08:01:38;;;;;;;28.20;21.97;;;;;;;;;;5054653;28;20036;-54
2024/01/20 08:04:04;;;;;;;36.43;23.50;;;;;;;;;;5053889;28;20085;-53
2024/01/20 08:06:30;;;;;;;26.97;22.70;;;;;;;;;;5053612;28;20178;-56
2024/01/20 08:08:56;;;;;;;32.77;22.57;;;;;;;;;;5054616;28;20056;-52
2024/01/20 08:11:22;;;;;;;30.93;23.23;;;;;;;;;;5053828;28;20040;-52
2024/01/20 08:13:48;;;;;;;29.23;21.97;;;;;;;;;;5053694;28;20025;-53
2024/01/20 08:16:14;;;;;;;33.40;22.23;;;;;;;;;;5053730;28;20021;-51
2024/01/20 08:18:40;;;;;;;27.33;22.70;;;;;;;;;;5054257;28;20493;-52
2024/01/20 08:21:09;;;;;;;34.53;22.40;;;;;;;;;;5053530;28;20059;-54
2024/01/20 08:23:35;;;;;;;30.20;23.00;;;;;;;;;;5054237;28;20060;-54
2024/01/20 08:26:03;;;;;;;31.67;24.30;;;;;;;;;;5054407;28;20375;-54
2024/01/20 08:28:29;;;;;;;25.33;21.63;;;;;;;;;;5054449;28;20091;-53
2024/01/20 08:30:55;;;;;;;28.53;21.80;;;;;;;;;;5054244;28;20029;-53
2024/01/20 08:33:20;;;;;;;28.30;22.53;;;;;;;;;;5053835;28;20096;-54
2024/01/20 08:35:46;;;;;;;32.73;22.17;;;;;;;;;;5053824;28;20052;-54
2024/01/20 08:38:12;;;;;;;38.97;24.17;;;;;;;;;;5053607;28;20037;-54
2024/01/20 08:40:38;;;;;;;34.47;23.90;;;;;;;;;;5053285;28;20398;-51
2024/01/20 08:43:04;;;;;;;26.17;21.10;;;;;;;;;;5054159;28;20414;-51
2024/01/20 08:45:30;;;;;;;31.40;23.23;;;;;;;;;;5054023;28;20052;-54
2024/01/20 08:47:56;;;;;;;33.70;23.20;;;;;;;;;;5054222;28;20116;-53
2024/01/20 08:50:22;;;;;;;28.40;22.73;;;;;;;;;;5053603;28;20520;-52
2024/01/20 08:52:48;;;;;;;27.50;20.97;;;;;;;;;;5053690;28;20053;-56
2024/01/20 08:55:14;;;;;;;28.57;23.07;;;;;;;;;;5053931;28;20076;-52
2024/01/20 08:57:40;;;;;;;26.53;21.53;;;;;;;;;;5053291;28;20036;-55
2024/01/20 09:00:09;;;;;;;33.63;23.67;;;;;;;;;;5053470;28;20036;-55
2024/01/20 09:02:35;;;;;;;32.50;24.27;;;;;;;;;;5053492;28;20025;-53
2024/01/20 09:05:01;;;;;;;34.20;24.83;;;;;;;;;;5053436;28;20032;-56
2024/01/20 09:07:28;;;;;;;33.30;23.80;;;;;;;;;;5054072;28;20419;-53
2024/01/20 09:09:54;;;;;;;30.03;22.67;;;;;;;;;;5053371;28;20477;-54
2024/01/20 09:12:20;;;;;;;29.60;23.43;;;;;;;;;;5053376;28;20064;-55
2024/01/20 09:14:46;;;;;;;34.50;23.57;;;;;;;;;;5054121;28;20032;-51
2024/01/20 09:17:12;;;;;;;34.87;23.87;;;;;;;;;;5053319;28;20519;-54
2024/01/20 09:19:38;;;;;;;28.50;21.57;;;;;;;;;;5053910;28;20424;-54
2024/01/20 09:22:04;;;;;;;35.50;22.53;;;;;;;;;;5053212;28;20021;-55
2024/01/20 09:24:30;;;;;;;27.53;21.63;;;;;;;;;;5053669;28;20083;-55
2024/01/20 09:26:56;;;;;;;31.00;22.67;;;;;;;;;;5053440;28;20417;-55
2024/01/20 09:29:22;;;;;;;28.93;22.20;;;;;;;;;;5053676;28;20067;-53
2024/01/20 09:31:48;;;;;;;29.93;22.57;;;;;;;;;;5053882;28;20031;-52
2024/01/20 09:34:14;;;;;;;28.30;23.07;;;;;;;;;;5053257;28;20017;-54
2024/01/20 09:36:40;;;;;;;28.80;24.33;;;;;;;;;;5053124;28;20036;-53
2024/01/20 09:39:11;;;;;;;36.83;23.73;;;;;;;;;;5053131;28;20029;-53
2024/01/20 09:41:36;;;;;;;31.50;24.08;;;;;;;;;;5053722;28;20091;-54
2024/01/20 09:44:03;;;;;;;34.83;22.33;;;;;;;;;;5052911;28;20017;-54
2024/01/20 09:46:29;;;;;;;30.23;23.90;;;;;;;;;;5053208;28;20033;-55
2024/01/20 09:48:56;;;;;;;28.37;23.97;;;;;;;;;;5053767;28;20033;-55
2024/01/20 09:51:24;;;;;;;27.33;22.47;;;;;;;;;;5053933;28;20036;-54
2024/01/20 09:53:54;;;;;;;32.17;23.50;;;;;;;;;;5056013;28;20036;-50
2024/01/20 09:56:21;;;;;;;25.45;18.38;;;;;;;;;;5056614;28;20123;-52
2024/01/20 09:58:48;;;;;;;31.17;22.43;;;;;;;;;;5056975;28;20079;-56
2024/01/20 10:01:14;;;;;;;28.50;23.80;;;;;;;;;;5056625;28;20045;-55
2024/01/20 10:03:42;;;;;;;36.00;22.97;;;;;;;;;;5056745;28;20029;-53
2024/01/20 10:06:07;;;;;;;33.67;24.00;;;;;;;;;;5056415;28;20108;-51
2024/01/20 10:08:33;;;;;;;27.83;22.67;;;;;;;;;;5057474;28;20408;-51
2024/01/20 10:11:03;;;;;;;34.07;23.47;;;;;;;;;;5056649;28;20367;-55
2024/01/20 10:13:30;;;;;;;33.00;24.60;;;;;;;;;;5056174;28;20028;-55
2024/01/20 10:15:56;;;;;;;34.10;25.93;;;;;;;;;;5056608;28;20641;-55
2024/01/20 10:18:22;;;;;;;34.27;25.30;;;;;;;;;;5056416;28;20061;-57
2024/01/20 10:20:48;;;;;;;29.47;23.93;;;;;;;;;;5057091;28;20406;-56
2024/01/20 10:23:14;;;;;;;28.93;22.93;;;;;;;;;;5055963;28;20087;-55
2024/01/20 10:25:40;;;;;;;34.80;24.67;;;;;;;;;;5056169;28;20112;-54
2024/01/20 10:28:09;;;;;;;31.53;24.10;;;;;;;;;;5056790;28;20401;-55
2024/01/20 10:30:37;;;;;;;31.60;25.87;;;;;;;;;;5056708;28;20033;-55
2024/01/20 10:33:04;;;;;;;34.13;26.20;;;;;;;;;;5056251;28;20033;-54
2024/01/20 10:35:30;;;;;;;26.90;21.80;;;;;;;;;;5055810;28;20493;-56
2024/01/20 10:37:58;;;;;;;28.10;22.63;;;;;;;;;;5056508;28;20029;-55
2024/01/20 10:40:24;;;;;;;28.50;23.17;;;;;;;;;;5055757;28;20102;-53
2024/01/20 10:42:55;;;;;;;29.50;23.97;;;;;;;;;;5055461;28;20467;-56
2024/01/20 10:45:22;;;;;;;28.17;22.00;;;;;;;;;;5056437;28;20028;-52
2024/01/20 10:47:52;;;;;;;28.03;20.70;;;;;;;;;;5055794;28;20033;-50
2024/01/20 10:50:19;;;;;;;29.03;22.33;;;;;;;;;;5055787;28;20035;-56
2024/01/20 10:52:45;;;;;;;27.23;22.47;;;;;;;;;;5056586;28;20106;-54
2024/01/20 10:55:12;;;;;;;29.47;24.20;;;;;;;;;;5055854;28;20099;-53
2024/01/20 10:57:38;;;;;;;27.30;22.57;;;;;;;;;;5056007;28;20028;-55
2024/01/20 11:00:08;;;;;;;31.33;23.43;;;;;;;;;;5056125;28;20033;-56
2024/01/20 11:02:35;;;;;;;31.67;22.88;;;;;;;;;;5056340;28;20021;-54
2024/01/20 11:05:01;;;;;;;26.53;23.13;;;;;;;;;;5055112;28;20124;-53
2024/01/20 11:07:27;;;;;;;30.00;22.50;;;;;;;;;;5056235;28;20020;-55
2024/01/20 11:09:57;;;;;;;32.87;24.10;;;;;;;;;;5054918;28;20066;-54
2024/01/20 11:12:23;;;;;;;31.57;25.37;;;;;;;;;;5055400;28;20078;-55
2024/01/20 11:14:52;;;;;;;35.37;23.07;;;;;;;;;;5055346;28;20254;-54
2024/01/20 11:17:18;;;;;;;26.77;20.83;;;;;;;;;;5055320;28;20032;-55
2024/01/20 11:19:44;;;;;;;32.43;22.20;;;;;;;;;;5055262;28;20123;-55
2024/01/20 11:22:30;;;;;;;33.20;24.10;;;;;;;;;;5055445;28;20110;-51
2024/01/20 11:24:56;;;;;;;29.20;22.67;;;;;;;;;;5054901;28;20519;-54
2024/01/20 11:27:22;;;;;;;39.67;23.43;;;;;;;;;;5055193;28;20021;-55
2024/01/20 11:29:48;;;;;;;24.67;21.40;;;;;;;;;;5054821;28;20025;-54
2024/01/20 11:32:14;;;;;;;30.03;23.10;;;;;;;;;;5055548;28;20023;-56
2024/01/20 11:34:43;;;;;;;28.10;22.73;;;;;;;;;;5055038;28;20362;-53
2024/01/20 11:37:09;;;;;;;35.30;23.20;;;;;;;;;;5054961;28;20025;-53
2024/01/20 11:39:35;;;;;;;32.57;24.47;;;;;;;;;;5055659;28;20090;-55
2024/01/20 11:42:02;;;;;;;34.03;23.07;;;;;;;;;;5054879;28;20031;-56
2024/01/20 11:44:29;;;;;;;28.10;21.23;;;;;;;;;;5054528;28;20522;-53
2024/01/20 11:46:55;;;;;;;29.57;23.27;;;;;;;;;;5054710;28;20029;-54
2024/01/20 11:49:21;;;;;;;32.83;23.17;;;;;;;;;;5055606;28;20025;-56
2024/01/20 11:51:47;;;;;;;32.87;22.73;;;;;;;;;;5054370;28;20025;-56
2024/01/20 11:54:13;;;;;;;28.77;21.97;;;;;;;;;;5055132;28;20335;-54
2024/01/20 11:56:39;;;;;;;31.23;22.27;;;;;;;;;;5054951;28;20060;-53
2024/01/20 11:59:05;;;;;;;37.40;24.97;;;;;;;;;;5055389;28;20440;-54
2024/01/20 12:01:31;;;;;;;28.77;23.20;;;;;;;;;;5054364;28;20036;-54
2024/01/20 12:03:59;;;;;;;35.43;24.80;;;;;;;;;;5054959;28;20051;-56
2024/01/20 12:06:25;;;;;;;40.63;24.23;;;;;;;;;;5054888;28;20033;-56
2024/01/20 12:08:51;;;;;;;32.83;24.87;;;;;;;;;;5054840;28;20124;-56
2024/01/20 12:11:18;;;;;;;27.47;21.33;;;;;;;;;;5054263;28;20055;-54
2024/01/20 12:13:45;;;;;;;34.47;24.57;;;;;;;;;;5055083;28;20408;-55
2024/01/20 12:16:11;;;;;;;31.27;22.60;;;;;;;;;;5053480;28;20029;-54
2024/01/20 12:18:37;;;;;;;34.20;23.57;;;;;;;;;;5054487;28;20036;-54
2024/01/20 12:21:03;;;;;;;36.63;24.07;;;;;;;;;;5054073;28;20044;-55
2024/01/20 12:23:29;;;;;;;29.70;25.27;;;;;;;;;;5054131;28;20463;-54
2024/01/20 12:25:55;;;;;;;41.37;24.03;;;;;;;;;;5054259;28;20021;-54
2024/01/20 12:28:21;;;;;;;33.63;24.33;;;;;;;;;;5054611;28;20348;-54
2024/01/20 12:30:47;;;;;;;27.43;21.10;;;;;;;;;;5054070;28;20025;-54
2024/01/20 12:33:13;;;;;;;32.30;23.07;;;;;;;;;;5053663;28;20025;-52
2024/01/20 12:35:39;;;;;;;25.77;21.93;;;;;;;;;;5054497;28;20029;-53
2024/01/20 12:38:05;;;;;;;30.73;21.97;;;;;;;;;;5054676;28;20033;-56
2024/01/20 12:40:31;;;;;;;28.23;23.43;;;;;;;;;;5053690;28;20033;-56
2024/01/20 12:42:57;;;;;;;31.70;22.53;;;;;;;;;;5053780;28;20025;-56
2024/01/20 12:45:23;;;;;;;27.93;23.03;;;;;;;;;;5054376;28;20466;-56
2024/01/20 12:47:49;;;;;;;32.53;23.90;;;;;;;;;;5054154;28;20037;-56
2024/01/20 12:50:15;;;;;;;34.50;23.77;;;;;;;;;;5054238;28;20033;-54
2024/01/20 12:52:42;;;;;;;26.97;22.57;;;;;;;;;;5054462;28;20419;-56
2024/01/20 12:55:08;;;;;;;26.97;20.87;;;;;;;;;;5053648;28;20045;-56
2024/01/20 12:57:34;;;;;;;27.93;21.70;;;;;;;;;;5053500;28;20064;-55
2024/01/20 13:00:01;;;;;;;26.80;21.60;;;;;;;;;;5054418;28;20233;-56
2024/01/20 13:02:27;;;;;;;31.30;22.37;;;;;;;;;;5053240;28;20032;-55
2024/01/20 13:04:53;;;;;;;27.97;21.37;;;;;;;;;;5053736;28;20021;-56
2024/01/20 13:07:22;;;;;;;29.10;22.03;;;;;;;;;;5053892;28;20025;-54
2024/01/20 13:09:47;;;;;;;32.73;22.60;;;;;;;;;;5054233;28;20033;-54
2024/01/20 13:12:14;;;;;;;27.93;22.40;;;;;;;;;;5053606;28;20048;-54
2024/01/20 13:14:41;;;;;;;23.00;19.90;;;;;;;;;;5054013;28;20032;-58
2024/01/20 13:17:07;;;;;;;25.30;19.30;;;;;;;;;;5053401;28;20025;-56
2024/01/20 13:19:33;;;;;;;27.27;20.23;;;;;;;;;;5053921;28;20040;-55
2024/01/20 13:21:59;;;;;;;29.97;19.83;;;;;;;;;;5053516;28;20091;-55
2024/01/20 13:24:25;;;;;;;30.37;19.23;;;;;;;;;;5053969;28;20025;-55
2024/01/20 13:26:51;;;;;;;28.53;20.00;;;;;;;;;;5053140;28;20379;-55
2024/01/20 13:29:17;;;;;;;27.87;20.57;;;;;;;;;;5056747;28;20025;-55
2024/01/20 13:31:43;;;;;;;22.63;18.57;;;;;;;;;;5057775;28;20025;-54
2024/01/20 13:34:09;;;;;;;27.57;18.47;;;;;;;;;;5057515;28;20032;-57
2024/01/20 13:36:35;;;;;;;26.80;18.30;;;;;;;;;;5057182;28;20025;-56
2024/01/20 13:39:04;;;;;;;20.20;16.70;;;;;;;;;;5057416;28;20044;-55
2024/01/20 13:41:31;;;;;;;20.50;17.80;;;;;;;;;;5057039;28;20037;-57
2024/01/20 13:43:57;;;;;;;27.83;19.33;;;;;;;;;;5057124;28;20398;-57
2024/01/20 13:46:23;;;;;;;19.90;16.20;;;;;;;;;;5057084;28;20032;-54
2024/01/20 13:48:49;;;;;;;19.90;17.53;;;;;;;;;;5057642;28;20394;-55
2024/01/20 13:51:15;;;;;;;26.43;18.00;;;;;;;;;;5056992;28;20036;-51
2024/01/20 13:53:43;;;;;;;25.43;18.17;;;;;;;;;;5057186;28;20348;-55
2024/01/20 13:56:11;;;;;;;24.57;17.13;;;;;;;;;;5056975;28;20055;-57
2024/01/20 13:58:37;;;;;;;22.13;16.60;;;;;;;;;;5057396;28;20025;-55
2024/01/20 14:01:04;;;;;;;22.50;17.20;;;;;;;;;;5056747;28;20378;-54
2024/01/20 14:03:30;;;;;;;28.10;18.33;;;;;;;;;;5057588;28;20426;-54
2024/01/20 14:05:56;;;;;;;23.37;16.63;;;;;;;;;;5056674;28;20021;-56
2024/01/20 14:08:23;;;;;;;26.37;16.70;;;;;;;;;;5057192;28;20447;-53
2024/01/20 14:10:49;;;;;;;24.00;16.43;;;;;;;;;;5057087;28;20032;-57